sensor_id;sensor_type;location;lat;lon;timestamp;pressure;altitude;pressure_sealevel;temperature;humidity
77537;BME280;67783;51.656;16.106;2023-11-21T00:01:41;100906.27;;;11.58;73.04
77537;BME280;67783;51.656;16.106;2023-11-21T00:04:42;100909.05;;;11.57;73.18
77537;BME280;67783;51.656;16.106;2023-11-21T00:07:47;100911.97;;;11.54;73.48
77537;BME280;67783;51.656;16.106;2023-11-21T00:10:49;100909.15;;;11.55;73.24
77537;BME280;67783;51.656;16.106;2023-11-21T00:13:52;100907.56;;;11.53;73.36
77537;BME280;67783;51.656;16.106;2023-11-21T00:16:53;100899.51;;;11.53;73.26
77537;BME280;67783;51.656;16.106;2023-11-21T00:19:55;100902.43;;;11.50;73.39
77537;BME280;67783;51.656;16.106;2023-11-21T00:22:57;100911.34;;;11.50;73.33
77537;BME280;67783;51.656;16.106;2023-11-21T00:26:01;100891.10;;;11.34;73.47
77537;BME280;67783;51.656;16.106;2023-11-21T00:29:06;100918.54;;;11.50;73.81
77537;BME280;67783;51.656;16.106;2023-11-21T00:32:09;100923.67;;;11.53;73.40
77537;BME280;67783;51.656;16.106;2023-11-21T00:35:11;100923.04;;;11.49;73.67
77537;BME280;67783;51.656;16.106;2023-11-21T00:38:12;100914.02;;;11.50;73.50
77537;BME280;67783;51.656;16.106;2023-11-21T00:41:14;100915.95;;;11.48;73.61
77537;BME280;67783;51.656;16.106;2023-11-21T00:44:26;100915.08;;;11.48;73.90
77537;BME280;67783;51.656;16.106;2023-11-21T00:47:28;100926.59;;;11.50;73.59
77537;BME280;67783;51.656;16.106;2023-11-21T00:50:29;100920.46;;;11.48;73.73
77537;BME280;67783;51.656;16.106;2023-11-21T00:53:31;100925.73;;;11.49;73.52
77537;BME280;67783;51.656;16.106;2023-11-21T00:56:33;100926.69;;;11.48;73.66
77537;BME280;67783;51.656;16.106;2023-11-21T00:59:35;100931.00;;;11.51;73.52
77537;BME280;67783;51.656;16.106;2023-11-21T01:02:36;100929.13;;;11.51;73.58
77537;BME280;67783;51.656;16.106;2023-11-21T01:05:41;100930.13;;;11.50;73.80
77537;BME280;67783;51.656;16.106;2023-11-21T01:08:44;100928.41;;;11.49;73.50
77537;BME280;67783;51.656;16.106;2023-11-21T01:11:46;100933.15;;;11.46;73.80
77537;BME280;67783;51.656;16.106;2023-11-21T01:14:48;100936.55;;;11.48;73.50
77537;BME280;67783;51.656;16.106;2023-11-21T01:17:49;100940.23;;;11.47;73.57
77537;BME280;67783;51.656;16.106;2023-11-21T01:20:51;100945.38;;;11.50;73.50
77537;BME280;67783;51.656;16.106;2023-11-21T01:23:54;100942.80;;;11.48;73.64
77537;BME280;67783;51.656;16.106;2023-11-21T01:26:59;100948.07;;;11.50;73.82
77537;BME280;67783;51.656;16.106;2023-11-21T01:30:02;100947.11;;;11.51;73.56
77537;BME280;67783;51.656;16.106;2023-11-21T01:33:03;100950.74;;;11.50;73.63
77537;BME280;67783;51.656;16.106;2023-11-21T01:36:06;100952.34;;;11.52;73.55
77537;BME280;67783;51.656;16.106;2023-11-21T01:39:07;100957.84;;;11.51;73.59
77537;BME280;67783;51.656;16.106;2023-11-21T01:42:19;100957.08;;;11.49;73.75
77537;BME280;67783;51.656;16.106;2023-11-21T01:45:21;100957.08;;;11.49;73.61
77537;BME280;67783;51.656;16.106;2023-11-21T01:48:23;100972.45;;;11.47;73.76
77537;BME280;67783;51.656;16.106;2023-11-21T01:51:25;100969.77;;;11.47;73.64
77537;BME280;67783;51.656;16.106;2023-11-21T01:54:28;100930.29;;;11.24;73.75
77537;BME280;67783;51.656;16.106;2023-11-21T01:57:40;100961.29;;;11.40;74.14
77537;BME280;67783;51.656;16.106;2023-11-21T02:00:42;100968.24;;;11.43;73.72
77537;BME280;67783;51.656;16.106;2023-11-21T02:03:44;100967.41;;;11.42;73.82
77537;BME280;67783;51.656;16.106;2023-11-21T02:06:46;100966.55;;;11.42;73.73
77537;BME280;67783;51.656;16.106;2023-11-21T02:09:48;100979.21;;;11.40;73.84
77537;BME280;67783;51.656;16.106;2023-11-21T02:12:50;100978.25;;;11.41;73.73
77537;BME280;67783;51.656;16.106;2023-11-21T02:15:51;100982.86;;;11.39;73.87
77537;BME280;67783;51.656;16.106;2023-11-21T02:18:56;100987.39;;;11.38;74.07
77537;BME280;67783;51.656;16.106;2023-11-21T02:21:59;100981.90;;;11.40;73.80
77537;BME280;67783;51.656;16.106;2023-11-21T02:25:08;100985.55;;;11.39;73.85
77537;BME280;67783;51.656;16.106;2023-11-21T02:28:09;100985.45;;;11.40;73.75
77537;BME280;67783;51.656;16.106;2023-11-21T02:31:16;100992.63;;;11.40;73.78
77537;BME280;67783;51.656;16.106;2023-11-21T02:34:22;100980.17;;;11.39;74.04
77537;BME280;67783;51.656;16.106;2023-11-21T02:37:25;100988.76;;;11.44;73.68
77537;BME280;67783;51.656;16.106;2023-11-21T02:40:27;100967.64;;;11.27;73.79
77537;BME280;67783;51.656;16.106;2023-11-21T02:43:29;100992.30;;;11.44;73.69
77537;BME280;67783;51.656;16.106;2023-11-21T02:46:30;100991.45;;;11.44;73.73
77537;BME280;67783;51.656;16.106;2023-11-21T02:49:41;100992.40;;;11.43;73.91
77537;BME280;67783;51.656;16.106;2023-11-21T02:52:43;100987.57;;;11.48;73.65
77537;BME280;67783;51.656;16.106;2023-11-21T02:55:45;100987.70;;;11.46;73.69
77537;BME280;67783;51.656;16.106;2023-11-21T02:58:46;100986.60;;;11.49;73.56
77537;BME280;67783;51.656;16.106;2023-11-21T03:01:48;100995.62;;;11.48;73.64
77537;BME280;67783;51.656;16.106;2023-11-21T03:04:50;100991.76;;;11.52;73.51
77537;BME280;67783;51.656;16.106;2023-11-21T03:07:52;100995.43;;;11.51;73.61
77537;BME280;67783;51.656;16.106;2023-11-21T03:10:57;100996.39;;;11.50;73.75
77537;BME280;67783;51.656;16.106;2023-11-21T03:13:59;100985.52;;;11.51;73.58
77537;BME280;67783;51.656;16.106;2023-11-21T03:17:01;100984.88;;;11.48;73.76
77537;BME280;67783;51.656;16.106;2023-11-21T03:20:04;100991.02;;;11.50;73.58
77537;BME280;67783;51.656;16.106;2023-11-21T03:23:07;100999.30;;;11.47;73.75
77537;BME280;67783;51.656;16.106;2023-11-21T03:26:18;100991.45;;;11.44;74.02
77537;BME280;67783;51.656;16.106;2023-11-21T03:29:19;100993.07;;;11.46;73.76
77537;BME280;67783;51.656;16.106;2023-11-21T03:32:21;100997.77;;;11.43;74.01
77537;BME280;67783;51.656;16.106;2023-11-21T03:35:22;100995.86;;;11.45;73.77
77537;BME280;67783;51.656;16.106;2023-11-21T03:38:25;100996.95;;;11.42;73.95
77537;BME280;67783;51.656;16.106;2023-11-21T03:41:26;101000.27;;;11.46;73.78
77537;BME280;67783;51.656;16.106;2023-11-21T03:44:29;100996.71;;;11.45;73.87
77537;BME280;67783;51.656;16.106;2023-11-21T03:47:34;100992.21;;;11.46;74.05
77537;BME280;67783;51.656;16.106;2023-11-21T03:50:35;100997.58;;;11.46;73.80
77537;BME280;67783;51.656;16.106;2023-11-21T03:53:37;101001.23;;;11.45;73.88
77537;BME280;67783;51.656;16.106;2023-11-21T03:56:39;101006.49;;;11.46;73.74
77537;BME280;67783;51.656;16.106;2023-11-21T03:59:41;101006.82;;;11.42;73.91
77537;BME280;67783;51.656;16.106;2023-11-21T04:02:43;101013.78;;;11.44;73.80
77537;BME280;67783;51.656;16.106;2023-11-21T04:05:45;101010.47;;;11.41;73.95
77537;BME280;67783;51.656;16.106;2023-11-21T04:08:49;101010.47;;;11.41;74.31
77537;BME280;67783;51.656;16.106;2023-11-21T04:11:52;101015.50;;;11.45;73.86
77537;BME280;67783;51.656;16.106;2023-11-21T04:14:53;101013.88;;;11.43;74.02
77537;BME280;67783;51.656;16.106;2023-11-21T04:17:55;101010.14;;;11.45;73.87
77537;BME280;67783;51.656;16.106;2023-11-21T04:20:58;101013.88;;;11.43;73.98
77537;BME280;67783;51.656;16.106;2023-11-21T04:24:10;101014.88;;;11.42;74.09
77537;BME280;67783;51.656;16.106;2023-11-21T04:27:11;101016.47;;;11.44;73.88
77537;BME280;67783;51.656;16.106;2023-11-21T04:30:15;101018.29;;;11.44;73.97
77537;BME280;67783;51.656;16.106;2023-11-21T04:33:17;101022.47;;;11.48;73.75
77537;BME280;67783;51.656;16.106;2023-11-21T04:36:18;101025.29;;;11.46;73.78
77537;BME280;67783;51.656;16.106;2023-11-21T04:39:30;101021.74;;;11.46;73.79
77537;BME280;67783;51.656;16.106;2023-11-21T04:42:36;101026.88;;;11.49;73.68
77537;BME280;67783;51.656;16.106;2023-11-21T04:45:38;101026.15;;;11.47;73.67
77537;BME280;67783;51.656;16.106;2023-11-21T04:48:42;101026.15;;;11.47;73.57
77537;BME280;67783;51.656;16.106;2023-11-21T04:51:44;101016.56;;;11.43;73.69
77537;BME280;67783;51.656;16.106;2023-11-21T04:54:51;101015.84;;;11.41;73.75
77537;BME280;67783;51.656;16.106;2023-11-21T04:57:55;101021.20;;;11.41;73.61
77537;BME280;67783;51.656;16.106;2023-11-21T05:00:57;101020.66;;;11.36;73.74
77537;BME280;67783;51.656;16.106;2023-11-21T05:03:59;100999.34;;;11.22;73.64
77537;BME280;67783;51.656;16.106;2023-11-21T05:07:00;101028.17;;;11.31;73.76
77537;BME280;67783;51.656;16.106;2023-11-21T05:10:11;101038.19;;;11.29;73.99
77537;BME280;67783;51.656;16.106;2023-11-21T05:13:15;101040.53;;;11.33;73.75
77537;BME280;67783;51.656;16.106;2023-11-21T05:16:19;101039.68;;;11.33;73.79
77537;BME280;67783;51.656;16.106;2023-11-21T05:19:21;101046.77;;;11.34;73.65
77537;BME280;67783;51.656;16.106;2023-11-21T05:22:23;101044.18;;;11.32;73.77
77537;BME280;67783;51.656;16.106;2023-11-21T05:25:33;101050.42;;;11.33;73.83
77537;BME280;67783;51.656;16.106;2023-11-21T05:28:34;101047.63;;;11.34;73.72
77537;BME280;67783;51.656;16.106;2023-11-21T05:31:36;101046.87;;;11.32;73.78
77537;BME280;67783;51.656;16.106;2023-11-21T05:34:39;101051.15;;;11.35;73.61
77537;BME280;67783;51.656;16.106;2023-11-21T05:37:40;101053.95;;;11.33;73.78
77537;BME280;67783;51.656;16.106;2023-11-21T05:40:42;101054.59;;;11.37;73.66
77537;BME280;67783;51.656;16.106;2023-11-21T05:43:44;101053.73;;;11.36;73.68
77537;BME280;67783;51.656;16.106;2023-11-21T05:46:49;101061.05;;;11.34;73.82
77537;BME280;67783;51.656;16.106;2023-11-21T05:49:51;101068.01;;;11.37;73.66
77537;BME280;67783;51.656;16.106;2023-11-21T05:52:53;101069.94;;;11.35;73.75
77537;BME280;67783;51.656;16.106;2023-11-21T05:55:55;101071.66;;;11.36;73.63
77537;BME280;67783;51.656;16.106;2023-11-21T05:58:56;101076.07;;;11.37;73.75
77537;BME280;67783;51.656;16.106;2023-11-21T06:01:57;101072.20;;;11.41;73.63
77537;BME280;67783;51.656;16.106;2023-11-21T06:05:00;101088.21;;;11.42;73.70
77537;BME280;67783;51.656;16.106;2023-11-21T06:08:05;101093.45;;;11.44;73.82
77537;BME280;67783;51.656;16.106;2023-11-21T06:11:08;101090.59;;;11.47;73.59
77537;BME280;67783;51.656;16.106;2023-11-21T06:14:12;101094.23;;;11.46;73.68
77537;BME280;67783;51.656;16.106;2023-11-21T06:17:14;101097.64;;;11.48;73.55
77537;BME280;67783;51.656;16.106;2023-11-21T06:20:16;101097.64;;;11.48;73.71
77537;BME280;67783;51.656;16.106;2023-11-21T06:23:25;101104.97;;;11.46;74.11
77537;BME280;67783;51.656;16.106;2023-11-21T06:26:27;101109.38;;;11.47;73.68
77537;BME280;67783;51.656;16.106;2023-11-21T06:29:29;101115.70;;;11.46;73.94
77537;BME280;67783;51.656;16.106;2023-11-21T06:32:31;101108.38;;;11.48;73.77
77537;BME280;67783;51.656;16.106;2023-11-21T06:35:32;101108.38;;;11.48;73.93
77537;BME280;67783;51.656;16.106;2023-11-21T06:38:46;101113.88;;;11.46;74.26
77537;BME280;67783;51.656;16.106;2023-11-21T06:41:49;101112.70;;;11.50;73.88
77537;BME280;67783;51.656;16.106;2023-11-21T06:44:51;101115.48;;;11.49;74.03
77537;BME280;67783;51.656;16.106;2023-11-21T06:47:58;101121.61;;;11.51;73.80
77537;BME280;67783;51.656;16.106;2023-11-21T06:51:00;101119.98;;;11.48;73.91
77537;BME280;67783;51.656;16.106;2023-11-21T06:54:06;101125.35;;;11.48;74.26
77537;BME280;67783;51.656;16.106;2023-11-21T06:57:08;101120.62;;;11.52;73.88
77537;BME280;67783;51.656;16.106;2023-11-21T07:00:10;101128.81;;;11.50;73.83
77537;BME280;67783;51.656;16.106;2023-11-21T07:05:08;101136.54;;;11.55;73.80
77537;BME280;67783;51.656;16.106;2023-11-21T07:08:10;101134.17;;;11.50;74.03
77537;BME280;67783;51.656;16.106;2023-11-21T07:11:13;101143.61;;;11.56;73.81
77537;BME280;67783;51.656;16.106;2023-11-21T07:14:15;101136.54;;;11.55;73.93
77537;BME280;67783;51.656;16.106;2023-11-21T07:17:29;101136.54;;;11.55;74.24
77537;BME280;67783;51.656;16.106;2023-11-21T07:20:30;101147.92;;;11.58;73.86
77537;BME280;67783;51.656;16.106;2023-11-21T07:23:32;101151.48;;;11.59;74.04
77537;BME280;67783;51.656;16.106;2023-11-21T07:26:34;101155.44;;;11.66;73.79
77537;BME280;67783;51.656;16.106;2023-11-21T07:29:36;101162.31;;;11.70;73.76
77537;BME280;67783;51.656;16.106;2023-11-21T07:32:37;101160.40;;;11.72;73.63
77537;BME280;67783;51.656;16.106;2023-11-21T07:35:41;101160.40;;;11.72;73.69
77537;BME280;67783;51.656;16.106;2023-11-21T07:38:46;101166.73;;;11.71;73.90
77537;BME280;67783;51.656;16.106;2023-11-21T07:41:48;101167.48;;;11.73;73.68
77537;BME280;67783;51.656;16.106;2023-11-21T07:44:51;101166.53;;;11.74;73.75
77537;BME280;67783;51.656;16.106;2023-11-21T07:47:55;101169.77;;;11.79;73.58
77537;BME280;67783;51.656;16.106;2023-11-21T07:50:57;101178.78;;;11.78;73.52
77537;BME280;67783;51.656;16.106;2023-11-21T07:54:06;101183.99;;;11.42;70.74
77537;BME280;67783;51.656;16.106;2023-11-21T07:57:08;101195.85;;;11.13;71.87
77537;BME280;67783;51.656;16.106;2023-11-21T08:00:10;101196.42;;;10.64;71.81
77537;BME280;67783;51.656;16.106;2023-11-21T08:03:14;101195.79;;;10.46;72.60
77537;BME280;67783;51.656;16.106;2023-11-21T08:06:15;101197.07;;;10.27;72.48
77537;BME280;67783;51.656;16.106;2023-11-21T08:09:27;101204.77;;;10.03;71.30
77537;BME280;67783;51.656;16.106;2023-11-21T08:12:28;101208.31;;;9.75;72.55
77537;BME280;67783;51.656;16.106;2023-11-21T08:15:30;101216.98;;;9.50;73.07
77537;BME280;67783;51.656;16.106;2023-11-21T08:18:34;101221.66;;;9.47;73.15
77537;BME280;67783;51.656;16.106;2023-11-21T08:21:37;101219.60;;;9.36;72.86
77537;BME280;67783;51.656;16.106;2023-11-21T08:24:47;101227.67;;;9.20;73.02
77537;BME280;67783;51.656;16.106;2023-11-21T08:27:49;101233.30;;;9.16;73.39
77537;BME280;67783;51.656;16.106;2023-11-21T08:30:50;101239.28;;;9.05;73.35
77537;BME280;67783;51.656;16.106;2023-11-21T08:33:52;101238.16;;;9.09;73.16
77537;BME280;67783;51.656;16.106;2023-11-21T08:36:56;101253.18;;;8.96;72.72
77537;BME280;67783;51.656;16.106;2023-11-21T08:40:09;101256.99;;;8.76;72.44
77537;BME280;67783;51.656;16.106;2023-11-21T08:43:17;101262.59;;;8.72;73.10
77537;BME280;67783;51.656;16.106;2023-11-21T08:46:21;101274.91;;;8.59;73.24
77537;BME280;67783;51.656;16.106;2023-11-21T08:49:22;101275.27;;;8.53;73.31
77537;BME280;67783;51.656;16.106;2023-11-21T08:52:26;101283.73;;;8.28;73.71
77537;BME280;67783;51.656;16.106;2023-11-21T08:55:31;101284.84;;;8.24;73.74
77537;BME280;67783;51.656;16.106;2023-11-21T08:58:38;101291.81;;;8.26;73.81
77537;BME280;67783;51.656;16.106;2023-11-21T09:01:39;101299.55;;;8.15;74.16
77537;BME280;67783;51.656;16.106;2023-11-21T09:04:41;101303.57;;;8.07;74.27
77537;BME280;67783;51.656;16.106;2023-11-21T09:07:43;101306.30;;;8.05;74.39
77537;BME280;67783;51.656;16.106;2023-11-21T09:10:52;101310.53;;;8.09;73.92
77537;BME280;67783;51.656;16.106;2023-11-21T09:13:53;101323.65;;;8.14;73.65
77537;BME280;67783;51.656;16.106;2023-11-21T09:16:55;101329.16;;;8.11;73.62
77537;BME280;67783;51.656;16.106;2023-11-21T09:19:57;101329.93;;;8.13;73.45
77537;BME280;67783;51.656;16.106;2023-11-21T09:22:59;101338.04;;;8.11;73.21
77537;BME280;67783;51.656;16.106;2023-11-21T09:26:01;101339.91;;;8.09;73.08
77537;BME280;67783;51.656;16.106;2023-11-21T09:29:02;101342.92;;;8.03;72.91
77537;BME280;67783;51.656;16.106;2023-11-21T09:32:07;101345.59;;;8.03;72.57
77537;BME280;67783;51.656;16.106;2023-11-21T09:35:11;101355.40;;;8.03;72.79
77537;BME280;67783;51.656;16.106;2023-11-21T09:38:15;101361.98;;;7.96;72.50
77537;BME280;67783;51.656;16.106;2023-11-21T09:41:23;101359.72;;;7.88;72.50
77537;BME280;67783;51.656;16.106;2023-11-21T09:44:35;101368.18;;;7.79;72.65
77537;BME280;67783;51.656;16.106;2023-11-21T09:47:42;101358.12;;;7.67;72.53
77537;BME280;67783;51.656;16.106;2023-11-21T09:50:46;101369.29;;;7.58;72.46
77537;BME280;67783;51.656;16.106;2023-11-21T09:53:50;101376.23;;;7.43;72.75
77537;BME280;67783;51.656;16.106;2023-11-21T09:56:59;101371.44;;;7.32;72.91
77537;BME280;67783;51.656;16.106;2023-11-21T10:00:02;101376.27;;;7.24;73.08
77537;BME280;67783;51.656;16.106;2023-11-21T10:03:11;101375.26;;;7.08;73.18
77537;BME280;67783;51.656;16.106;2023-11-21T10:06:15;101380.58;;;7.08;73.22
77537;BME280;67783;51.656;16.106;2023-11-21T10:09:18;101389.38;;;7.10;73.03
77537;BME280;67783;51.656;16.106;2023-11-21T10:12:23;101390.20;;;7.12;72.36
77537;BME280;67783;51.656;16.106;2023-11-21T10:15:27;101389.88;;;7.18;72.74
77537;BME280;67783;51.656;16.106;2023-11-21T10:18:29;101385.37;;;7.20;72.42
77537;BME280;67783;51.656;16.106;2023-11-21T10:21:32;101398.53;;;7.23;72.45
77537;BME280;67783;51.656;16.106;2023-11-21T10:24:35;101394.94;;;7.24;72.37
77537;BME280;67783;51.656;16.106;2023-11-21T10:27:47;101390.38;;;7.26;72.01
77537;BME280;67783;51.656;16.106;2023-11-21T10:30:52;101399.03;;;7.31;72.26
77537;BME280;67783;51.656;16.106;2023-11-21T10:33:56;101402.63;;;7.30;72.08
77537;BME280;67783;51.656;16.106;2023-11-21T10:37:13;101409.11;;;7.25;71.09
77537;BME280;67783;51.656;16.106;2023-11-21T10:40:16;101417.63;;;7.14;72.20
77537;BME280;67783;51.656;16.106;2023-11-21T10:43:18;101417.57;;;7.16;72.06
77537;BME280;67783;51.656;16.106;2023-11-21T10:46:20;101430.53;;;7.23;72.17
77537;BME280;67783;51.656;16.106;2023-11-21T10:49:27;101428.59;;;7.27;72.08
77537;BME280;67783;51.656;16.106;2023-11-21T10:52:30;101428.43;;;7.30;71.10
77537;BME280;67783;51.656;16.106;2023-11-21T10:55:34;101429.01;;;7.18;71.45
77537;BME280;67783;51.656;16.106;2023-11-21T10:58:37;101428.72;;;7.05;71.89
77537;BME280;67783;51.656;16.106;2023-11-21T11:01:41;101434.25;;;7.01;71.92
77537;BME280;67783;51.656;16.106;2023-11-21T11:04:44;101435.34;;;6.96;72.01
77537;BME280;67783;51.656;16.106;2023-11-21T11:07:56;101439.02;;;6.94;71.65
77537;BME280;67783;51.656;16.106;2023-11-21T11:11:02;101447.89;;;6.94;71.88
77537;BME280;67783;51.656;16.106;2023-11-21T11:14:03;101442.83;;;6.88;71.60
77537;BME280;67783;51.656;16.106;2023-11-21T11:17:05;101439.44;;;6.85;71.71
77537;BME280;67783;51.656;16.106;2023-11-21T11:20:12;101435.03;;;6.84;71.76
77537;BME280;67783;51.656;16.106;2023-11-21T11:23:28;101443.48;;;6.75;71.39
77537;BME280;67783;51.656;16.106;2023-11-21T11:26:41;101446.26;;;6.72;71.98
77537;BME280;67783;51.656;16.106;2023-11-21T11:29:58;101447.34;;;6.68;72.15
77537;BME280;67783;51.656;16.106;2023-11-21T11:39:41;101460.51;;;6.91;71.69
77537;BME280;67783;51.656;16.106;2023-11-21T11:45:59;101475.73;;;6.87;71.05
77537;BME280;67783;51.656;16.106;2023-11-21T11:49:05;101472.03;;;6.91;71.31
77537;BME280;67783;51.656;16.106;2023-11-21T11:55:21;101479.27;;;6.88;70.72
77537;BME280;67783;51.656;16.106;2023-11-21T11:58:37;101489.01;;;6.89;71.31
77537;BME280;67783;51.656;16.106;2023-11-21T12:01:36;101491.52;;;6.92;71.33
77537;BME280;67783;51.656;16.106;2023-11-21T12:04:43;101495.15;;;6.91;70.71
77537;BME280;67783;51.656;16.106;2023-11-21T12:07:47;101504.07;;;6.90;71.04
77537;BME280;67783;51.656;16.106;2023-11-21T12:10:49;101504.22;;;6.87;70.61
77537;BME280;67783;51.656;16.106;2023-11-21T12:13:55;101514.12;;;6.83;70.85
77537;BME280;67783;51.656;16.106;2023-11-21T12:16:56;101515.27;;;6.78;70.84
77537;BME280;67783;51.656;16.106;2023-11-21T12:20:04;101514.75;;;6.70;70.12
77537;BME280;67783;51.656;16.106;2023-11-21T12:23:12;101509.00;;;6.59;70.91
77537;BME280;67783;51.656;16.106;2023-11-21T12:26:17;101522.74;;;6.70;70.82
77537;BME280;67783;51.656;16.106;2023-11-21T12:29:30;101532.72;;;6.65;69.86
77537;BME280;67783;51.656;16.106;2023-11-21T12:32:34;101528.99;;;6.69;70.93
77537;BME280;67783;51.656;16.106;2023-11-21T12:35:38;101532.67;;;6.66;70.83
77537;BME280;67783;51.656;16.106;2023-11-21T12:38:39;101538.06;;;6.65;70.97
77537;BME280;67783;51.656;16.106;2023-11-21T12:41:41;101540.92;;;6.60;71.13
77537;BME280;67783;51.656;16.106;2023-11-21T12:48:05;101544.16;;;6.67;71.17
77537;BME280;67783;51.656;16.106;2023-11-21T12:51:12;101554.95;;;6.64;71.10
77537;BME280;67783;51.656;16.106;2023-11-21T12:54:17;101556.84;;;6.62;70.68
77537;BME280;67783;51.656;16.106;2023-11-21T12:57:20;101562.29;;;6.59;71.18
77537;BME280;67783;51.656;16.106;2023-11-21T13:00:28;101574.62;;;6.61;71.95
77537;BME280;67783;51.656;16.106;2023-11-21T13:03:31;101578.20;;;6.60;71.22
77537;BME280;67783;51.656;16.106;2023-11-21T13:06:35;101590.98;;;6.52;71.21
77537;BME280;67783;51.656;16.106;2023-11-21T13:09:42;101587.46;;;6.52;70.84
77537;BME280;67783;51.656;16.106;2023-11-21T13:12:44;101586.48;;;6.54;70.93
77537;BME280;67783;51.656;16.106;2023-11-21T13:15:50;101593.16;;;6.42;70.91
77537;BME280;67783;51.656;16.106;2023-11-21T13:18:52;101594.21;;;6.38;71.25
77537;BME280;67783;51.656;16.106;2023-11-21T13:21:53;101604.86;;;6.38;71.38
77537;BME280;67783;51.656;16.106;2023-11-21T13:25:00;101603.27;;;6.34;71.12
77537;BME280;67783;51.656;16.106;2023-11-21T13:28:08;101612.85;;;6.38;71.32
77537;BME280;67783;51.656;16.106;2023-11-21T13:31:14;101618.45;;;6.32;70.87
77537;BME280;67783;51.656;16.106;2023-11-21T13:34:27;101606.56;;;6.19;70.45
77537;BME280;67783;51.656;16.106;2023-11-21T13:37:29;101611.06;;;6.17;71.12
77537;BME280;67783;51.656;16.106;2023-11-21T13:40:33;101613.94;;;6.13;71.03
77537;BME280;67783;51.656;16.106;2023-11-21T13:43:54;101618.70;;;6.05;70.63
77537;BME280;67783;51.656;16.106;2023-11-21T13:47:05;101614.04;;;5.88;71.07
77537;BME280;67783;51.656;16.106;2023-11-21T13:50:07;101635.02;;;5.95;71.17
77537;BME280;67783;51.656;16.106;2023-11-21T13:53:21;101651.34;;;5.86;71.16
77537;BME280;67783;51.656;16.106;2023-11-21T13:56:25;101662.08;;;5.83;71.28
77537;BME280;67783;51.656;16.106;2023-11-21T13:59:30;101667.48;;;5.80;71.26
77537;BME280;67783;51.656;16.106;2023-11-21T14:02:33;101680.70;;;5.83;71.26
77537;BME280;67783;51.656;16.106;2023-11-21T14:05:44;101684.32;;;5.81;71.09
77537;BME280;67783;51.656;16.106;2023-11-21T14:08:51;101684.66;;;5.72;70.85
77537;BME280;67783;51.656;16.106;2023-11-21T14:11:57;101691.72;;;5.73;71.30
77537;BME280;67783;51.656;16.106;2023-11-21T14:15:00;101700.62;;;5.72;71.22
77537;BME280;67783;51.656;16.106;2023-11-21T14:18:15;101699.77;;;5.71;70.60
77537;BME280;67783;51.656;16.106;2023-11-21T14:21:22;101703.19;;;5.75;71.15
77537;BME280;67783;51.656;16.106;2023-11-21T14:24:23;101705.19;;;5.68;71.12
77537;BME280;67783;51.656;16.106;2023-11-21T14:27:26;101713.13;;;5.70;71.13
77537;BME280;67783;51.656;16.106;2023-11-21T14:30:30;101710.80;;;5.61;71.03
77537;BME280;67783;51.656;16.106;2023-11-21T14:33:36;101713.78;;;5.51;70.91
77537;BME280;67783;51.656;16.106;2023-11-21T14:36:38;101720.84;;;5.52;71.37
77537;BME280;67783;51.656;16.106;2023-11-21T14:39:48;101728.81;;;5.52;71.28
77537;BME280;67783;51.656;16.106;2023-11-21T14:43:03;101733.93;;;5.34;71.05
77537;BME280;67783;51.656;16.106;2023-11-21T14:46:07;101738.46;;;5.30;71.45
77537;BME280;67783;51.656;16.106;2023-11-21T14:49:16;101738.65;;;5.26;71.51
77537;BME280;67783;51.656;16.106;2023-11-21T14:52:28;101743.13;;;5.24;71.10
77537;BME280;67783;51.656;16.106;2023-11-21T14:55:39;101747.38;;;5.29;71.35
77537;BME280;67783;51.656;16.106;2023-11-21T14:58:58;101745.83;;;5.22;71.38
77537;BME280;67783;51.656;16.106;2023-11-21T15:02:08;101755.77;;;5.17;71.46
77537;BME280;67783;51.656;16.106;2023-11-21T15:05:17;101759.91;;;5.26;71.52
77537;BME280;67783;51.656;16.106;2023-11-21T15:08:21;101759.12;;;5.22;71.59
77537;BME280;67783;51.656;16.106;2023-11-21T15:11:33;101768.13;;;5.18;71.28
77537;BME280;67783;51.656;16.106;2023-11-21T15:14:35;101769.98;;;5.16;71.32
77537;BME280;67783;51.656;16.106;2023-11-21T15:17:37;101777.38;;;5.06;71.27
77537;BME280;67783;51.656;16.106;2023-11-21T15:20:43;101774.84;;;5.03;71.41
77537;BME280;67783;51.656;16.106;2023-11-21T15:23:45;101781.31;;;4.95;71.81
77537;BME280;67783;51.656;16.106;2023-11-21T15:26:50;101781.20;;;4.98;71.74
77537;BME280;67783;51.656;16.106;2023-11-21T15:29:51;101793.22;;;5.09;71.76
77537;BME280;67783;51.656;16.106;2023-11-21T15:32:54;101802.17;;;5.07;71.51
77537;BME280;67783;51.656;16.106;2023-11-21T15:35:56;101807.38;;;5.10;71.35
77537;BME280;67783;51.656;16.106;2023-11-21T15:38:59;101808.72;;;4.97;71.04
77537;BME280;67783;51.656;16.106;2023-11-21T15:42:11;101810.78;;;4.87;70.92
77537;BME280;67783;51.656;16.106;2023-11-21T15:45:13;101817.15;;;4.82;71.21
77537;BME280;67783;51.656;16.106;2023-11-21T15:48:16;101822.98;;;4.65;71.05
77537;BME280;67783;51.656;16.106;2023-11-21T15:51:17;101799.49;;;4.51;71.32
77537;BME280;67783;51.656;16.106;2023-11-21T15:54:21;101833.57;;;4.67;71.43
77537;BME280;67783;51.656;16.106;2023-11-21T15:57:31;101842.41;;;4.67;71.33
77537;BME280;67783;51.656;16.106;2023-11-21T16:00:33;101847.62;;;4.70;71.37
77537;BME280;67783;51.656;16.106;2023-11-21T16:03:35;101852.97;;;4.69;71.28
77537;BME280;67783;51.656;16.106;2023-11-21T16:06:37;101862.78;;;4.67;71.35
77537;BME280;67783;51.656;16.106;2023-11-21T16:09:42;101863.80;;;4.62;71.36
77537;BME280;67783;51.656;16.106;2023-11-21T16:12:52;101868.34;;;4.59;71.62
77537;BME280;67783;51.656;16.106;2023-11-21T16:15:53;101869.24;;;4.58;71.52